sensor_id;sensor_type;location;lat;lon;timestamp;P1;durP1;ratioP1;P2;durP2;ratioP2
8887;SDS011;4480;52.370;9.748;2022-12-18T00:00:39;19.73;;;12.23;;
8887;SDS011;4480;52.370;9.748;2022-12-18T00:03:06;19.13;;;11.70;;
8887;SDS011;4480;52.370;9.748;2022-12-18T00:05:34;16.83;;;11.85;;
8887;SDS011;4480;52.370;9.748;2022-12-18T00:08:01;19.73;;;12.73;;
8887;SDS011;4480;52.370;9.748;2022-12-18T00:10:28;18.67;;;12.10;;
8887;SDS011;4480;52.370;9.748;2022-12-18T00:12:55;15.93;;;12.13;;
8887;SDS011;4480;52.370;9.748;2022-12-18T00:15:22;20.40;;;12.67;;
8887;SDS011;4480;52.370;9.748;2022-12-18T00:17:48;17.50;;;11.63;;
8887;SDS011;4480;52.370;9.748;2022-12-18T00:20:15;17.35;;;12.15;;
8887;SDS011;4480;52.370;9.748;2022-12-18T00:22:48;17.80;;;12.32;;
8887;SDS011;4480;52.370;9.748;2022-12-18T00:25:14;17.73;;;12.38;;
8887;SDS011;4480;52.370;9.748;2022-12-18T00:27:41;17.92;;;11.88;;
8887;SDS011;4480;52.370;9.748;2022-12-18T00:30:08;18.30;;;12.37;;
8887;SDS011;4480;52.370;9.748;2022-12-18T00:32:36;16.45;;;12.30;;
8887;SDS011;4480;52.370;9.748;2022-12-18T00:35:03;17.92;;;12.55;;
8887;SDS011;4480;52.370;9.748;2022-12-18T00:37:31;16.85;;;12.70;;
8887;SDS011;4480;52.370;9.748;2022-12-18T00:40:00;17.73;;;12.32;;
8887;SDS011;4480;52.370;9.748;2022-12-18T00:42:28;16.73;;;12.30;;
8887;SDS011;4480;52.370;9.748;2022-12-18T00:45:12;17.80;;;12.80;;
8887;SDS011;4480;52.370;9.748;2022-12-18T00:47:39;20.23;;;13.40;;
8887;SDS011;4480;52.370;9.748;2022-12-18T00:50:06;18.60;;;12.77;;
8887;SDS011;4480;52.370;9.748;2022-12-18T00:52:34;21.40;;;13.55;;
8887;SDS011;4480;52.370;9.748;2022-12-18T00:55:02;18.27;;;13.13;;
8887;SDS011;4480;52.370;9.748;2022-12-18T00:57:29;20.75;;;13.32;;
8887;SDS011;4480;52.370;9.748;2022-12-18T00:59:56;19.05;;;12.80;;
8887;SDS011;4480;52.370;9.748;2022-12-18T01:02:22;20.50;;;13.15;;
8887;SDS011;4480;52.370;9.748;2022-12-18T01:04:49;21.05;;;13.40;;
8887;SDS011;4480;52.370;9.748;2022-12-18T01:07:16;21.88;;;12.80;;
8887;SDS011;4480;52.370;9.748;2022-12-18T01:09:43;19.40;;;12.40;;
8887;SDS011;4480;52.370;9.748;2022-12-18T01:12:11;18.45;;;12.60;;
8887;SDS011;4480;52.370;9.748;2022-12-18T01:14:37;21.38;;;11.90;;
8887;SDS011;4480;52.370;9.748;2022-12-18T01:17:04;19.23;;;12.30;;
8887;SDS011;4480;52.370;9.748;2022-12-18T01:19:31;16.42;;;11.60;;
8887;SDS011;4480;52.370;9.748;2022-12-18T01:21:58;19.60;;;12.52;;
8887;SDS011;4480;52.370;9.748;2022-12-18T01:24:24;19.58;;;12.38;;
8887;SDS011;4480;52.370;9.748;2022-12-18T01:26:51;19.58;;;12.35;;
8887;SDS011;4480;52.370;9.748;2022-12-18T01:29:19;15.77;;;11.95;;
8887;SDS011;4480;52.370;9.748;2022-12-18T01:31:46;16.50;;;11.90;;
8887;SDS011;4480;52.370;9.748;2022-12-18T01:34:13;17.65;;;11.50;;
8887;SDS011;4480;52.370;9.748;2022-12-18T01:36:40;16.90;;;12.30;;
8887;SDS011;4480;52.370;9.748;2022-12-18T01:39:09;18.70;;;11.73;;
8887;SDS011;4480;52.370;9.748;2022-12-18T01:41:38;16.27;;;11.65;;
8887;SDS011;4480;52.370;9.748;2022-12-18T01:47:32;17.83;;;11.83;;
8887;SDS011;4480;52.370;9.748;2022-12-18T01:50:02;16.48;;;11.45;;
8887;SDS011;4480;52.370;9.748;2022-12-18T01:52:32;15.15;;;11.13;;
8887;SDS011;4480;52.370;9.748;2022-12-18T01:55:00;16.75;;;11.48;;
8887;SDS011;4480;52.370;9.748;2022-12-18T01:57:29;17.65;;;12.50;;
8887;SDS011;4480;52.370;9.748;2022-12-18T01:59:59;18.00;;;12.55;;
8887;SDS011;4480;52.370;9.748;2022-12-18T02:02:27;18.52;;;12.27;;
8887;SDS011;4480;52.370;9.748;2022-12-18T02:04:56;15.10;;;12.38;;
8887;SDS011;4480;52.370;9.748;2022-12-18T02:07:25;16.55;;;11.93;;
8887;SDS011;4480;52.370;9.748;2022-12-18T02:09:59;18.92;;;12.27;;
8887;SDS011;4480;52.370;9.748;2022-12-18T02:12:30;17.45;;;12.10;;
8887;SDS011;4480;52.370;9.748;2022-12-18T02:15:10;15.13;;;11.30;;
8887;SDS011;4480;52.370;9.748;2022-12-18T02:17:42;16.70;;;12.00;;
8887;SDS011;4480;52.370;9.748;2022-12-18T02:20:16;16.23;;;11.70;;
8887;SDS011;4480;52.370;9.748;2022-12-18T02:22:49;18.38;;;11.40;;
8887;SDS011;4480;52.370;9.748;2022-12-18T02:25:32;18.75;;;12.43;;
8887;SDS011;4480;52.370;9.748;2022-12-18T02:28:19;19.30;;;12.50;;
8887;SDS011;4480;52.370;9.748;2022-12-18T02:30:49;16.95;;;11.40;;
8887;SDS011;4480;52.370;9.748;2022-12-18T02:33:19;19.45;;;11.65;;
8887;SDS011;4480;52.370;9.748;2022-12-18T02:35:48;17.13;;;12.13;;
8887;SDS011;4480;52.370;9.748;2022-12-18T02:38:17;17.45;;;11.98;;
8887;SDS011;4480;52.370;9.748;2022-12-18T02:40:44;14.77;;;10.95;;
8887;SDS011;4480;52.370;9.748;2022-12-18T02:43:14;17.88;;;11.45;;
8887;SDS011;4480;52.370;9.748;2022-12-18T02:45:46;16.02;;;11.20;;
8887;SDS011;4480;52.370;9.748;2022-12-18T02:48:14;15.98;;;10.70;;
8887;SDS011;4480;52.370;9.748;2022-12-18T02:50:43;14.05;;;10.68;;
8887;SDS011;4480;52.370;9.748;2022-12-18T02:53:15;18.17;;;12.20;;
8887;SDS011;4480;52.370;9.748;2022-12-18T02:55:50;17.20;;;11.57;;
8887;SDS011;4480;52.370;9.748;2022-12-18T02:58:26;15.20;;;10.90;;
8887;SDS011;4480;52.370;9.748;2022-12-18T03:00:59;15.73;;;11.23;;
8887;SDS011;4480;52.370;9.748;2022-12-18T03:03:31;16.15;;;11.32;;
8887;SDS011;4480;52.370;9.748;2022-12-18T03:06:04;19.40;;;12.30;;
8887;SDS011;4480;52.370;9.748;2022-12-18T03:08:36;15.70;;;11.57;;
8887;SDS011;4480;52.370;9.748;2022-12-18T03:11:05;17.65;;;12.05;;
8887;SDS011;4480;52.370;9.748;2022-12-18T03:13:36;15.48;;;11.80;;
8887;SDS011;4480;52.370;9.748;2022-12-18T03:16:06;17.33;;;11.52;;
8887;SDS011;4480;52.370;9.748;2022-12-18T03:18:37;16.95;;;11.27;;
8887;SDS011;4480;52.370;9.748;2022-12-18T03:21:09;17.50;;;12.07;;
8887;SDS011;4480;52.370;9.748;2022-12-18T03:23:39;18.15;;;11.85;;
8887;SDS011;4480;52.370;9.748;2022-12-18T03:26:09;19.67;;;12.13;;
8887;SDS011;4480;52.370;9.748;2022-12-18T03:28:42;18.00;;;11.68;;
8887;SDS011;4480;52.370;9.748;2022-12-18T03:31:12;19.17;;;11.70;;
8887;SDS011;4480;52.370;9.748;2022-12-18T03:33:41;22.85;;;12.32;;
8887;SDS011;4480;52.370;9.748;2022-12-18T03:36:12;18.08;;;11.63;;
8887;SDS011;4480;52.370;9.748;2022-12-18T03:38:39;17.73;;;11.25;;
8887;SDS011;4480;52.370;9.748;2022-12-18T03:41:07;17.52;;;12.10;;
8887;SDS011;4480;52.370;9.748;2022-12-18T03:43:44;18.48;;;12.77;;
8887;SDS011;4480;52.370;9.748;2022-12-18T03:46:17;16.05;;;11.85;;
8887;SDS011;4480;52.370;9.748;2022-12-18T03:48:51;17.27;;;12.43;;
8887;SDS011;4480;52.370;9.748;2022-12-18T03:51:24;18.48;;;11.95;;
8887;SDS011;4480;52.370;9.748;2022-12-18T03:53:55;19.02;;;12.27;;
8887;SDS011;4480;52.370;9.748;2022-12-18T03:56:25;17.70;;;12.40;;
8887;SDS011;4480;52.370;9.748;2022-12-18T03:58:57;17.73;;;12.05;;
8887;SDS011;4480;52.370;9.748;2022-12-18T04:01:26;18.30;;;12.23;;
8887;SDS011;4480;52.370;9.748;2022-12-18T04:03:58;17.98;;;12.35;;
8887;SDS011;4480;52.370;9.748;2022-12-18T04:06:27;17.35;;;12.00;;
8887;SDS011;4480;52.370;9.748;2022-12-18T04:10:46;18.55;;;12.15;;
8887;SDS011;4480;52.370;9.748;2022-12-18T04:13:14;16.20;;;11.63;;
8887;SDS011;4480;52.370;9.748;2022-12-18T04:15:48;18.73;;;13.52;;
8887;SDS011;4480;52.370;9.748;2022-12-18T04:18:15;18.33;;;13.02;;
8887;SDS011;4480;52.370;9.748;2022-12-18T04:20:41;16.75;;;12.98;;
8887;SDS011;4480;52.370;9.748;2022-12-18T04:23:08;18.02;;;13.23;;
8887;SDS011;4480;52.370;9.748;2022-12-18T04:25:35;18.50;;;12.98;;
8887;SDS011;4480;52.370;9.748;2022-12-18T04:28:03;18.25;;;13.27;;
8887;SDS011;4480;52.370;9.748;2022-12-18T04:30:30;18.77;;;13.18;;
8887;SDS011;4480;52.370;9.748;2022-12-18T04:32:56;19.02;;;13.75;;
8887;SDS011;4480;52.370;9.748;2022-12-18T04:35:23;17.50;;;12.73;;
8887;SDS011;4480;52.370;9.748;2022-12-18T04:37:50;19.08;;;13.25;;
8887;SDS011;4480;52.370;9.748;2022-12-18T04:40:17;19.67;;;13.32;;
8887;SDS011;4480;52.370;9.748;2022-12-18T04:42:43;17.35;;;13.05;;
8887;SDS011;4480;52.370;9.748;2022-12-18T04:45:11;17.30;;;13.05;;
8887;SDS011;4480;52.370;9.748;2022-12-18T04:47:38;18.75;;;12.98;;
8887;SDS011;4480;52.370;9.748;2022-12-18T04:50:05;18.85;;;14.25;;
8887;SDS011;4480;52.370;9.748;2022-12-18T04:52:32;19.13;;;13.40;;
8887;SDS011;4480;52.370;9.748;2022-12-18T04:54:59;19.90;;;13.52;;
8887;SDS011;4480;52.370;9.748;2022-12-18T04:57:26;20.13;;;13.48;;
8887;SDS011;4480;52.370;9.748;2022-12-18T04:59:53;18.00;;;12.88;;
8887;SDS011;4480;52.370;9.748;2022-12-18T05:02:21;18.13;;;12.95;;
8887;SDS011;4480;52.370;9.748;2022-12-18T05:04:47;19.65;;;12.25;;
8887;SDS011;4480;52.370;9.748;2022-12-18T05:07:14;17.50;;;12.20;;
8887;SDS011;4480;52.370;9.748;2022-12-18T05:09:41;17.38;;;12.35;;
8887;SDS011;4480;52.370;9.748;2022-12-18T05:12:08;16.80;;;12.23;;
8887;SDS011;4480;52.370;9.748;2022-12-18T05:14:34;15.80;;;12.50;;
8887;SDS011;4480;52.370;9.748;2022-12-18T05:17:01;18.17;;;12.60;;
8887;SDS011;4480;52.370;9.748;2022-12-18T05:19:29;18.77;;;12.55;;
8887;SDS011;4480;52.370;9.748;2022-12-18T05:21:56;17.45;;;11.70;;
8887;SDS011;4480;52.370;9.748;2022-12-18T05:24:23;16.17;;;11.70;;
8887;SDS011;4480;52.370;9.748;2022-12-18T05:26:49;17.13;;;11.10;;
8887;SDS011;4480;52.370;9.748;2022-12-18T05:29:16;19.50;;;11.77;;
8887;SDS011;4480;52.370;9.748;2022-12-18T05:31:43;17.08;;;11.88;;
8887;SDS011;4480;52.370;9.748;2022-12-18T05:34:10;16.73;;;11.70;;
8887;SDS011;4480;52.370;9.748;2022-12-18T05:36:38;16.33;;;11.13;;
8887;SDS011;4480;52.370;9.748;2022-12-18T05:39:05;16.08;;;11.35;;
8887;SDS011;4480;52.370;9.748;2022-12-18T05:41:31;15.27;;;11.20;;
8887;SDS011;4480;52.370;9.748;2022-12-18T05:43:58;15.95;;;10.93;;
8887;SDS011;4480;52.370;9.748;2022-12-18T05:46:25;15.30;;;10.48;;
8887;SDS011;4480;52.370;9.748;2022-12-18T05:48:52;15.55;;;10.75;;
8887;SDS011;4480;52.370;9.748;2022-12-18T05:51:19;15.90;;;10.57;;
8887;SDS011;4480;52.370;9.748;2022-12-18T05:53:49;14.15;;;10.43;;
8887;SDS011;4480;52.370;9.748;2022-12-18T05:56:16;14.95;;;10.38;;
8887;SDS011;4480;52.370;9.748;2022-12-18T05:58:44;15.52;;;11.02;;
8887;SDS011;4480;52.370;9.748;2022-12-18T06:01:11;18.70;;;10.70;;
8887;SDS011;4480;52.370;9.748;2022-12-18T06:03:40;13.67;;;9.80;;
8887;SDS011;4480;52.370;9.748;2022-12-18T06:06:14;14.73;;;10.20;;
8887;SDS011;4480;52.370;9.748;2022-12-18T06:08:41;15.15;;;10.50;;
8887;SDS011;4480;52.370;9.748;2022-12-18T06:11:10;15.88;;;10.35;;
8887;SDS011;4480;52.370;9.748;2022-12-18T06:13:36;14.65;;;10.45;;
8887;SDS011;4480;52.370;9.748;2022-12-18T06:16:03;12.80;;;10.60;;
8887;SDS011;4480;52.370;9.748;2022-12-18T06:18:31;14.90;;;10.15;;
8887;SDS011;4480;52.370;9.748;2022-12-18T06:20:58;15.75;;;10.80;;
8887;SDS011;4480;52.370;9.748;2022-12-18T06:23:26;15.77;;;10.48;;
8887;SDS011;4480;52.370;9.748;2022-12-18T06:25:54;14.77;;;10.30;;
8887;SDS011;4480;52.370;9.748;2022-12-18T06:28:22;16.25;;;10.52;;
8887;SDS011;4480;52.370;9.748;2022-12-18T06:30:49;15.25;;;10.20;;
8887;SDS011;4480;52.370;9.748;2022-12-18T06:33:16;12.50;;;8.95;;
8887;SDS011;4480;52.370;9.748;2022-12-18T06:35:43;13.77;;;9.50;;
8887;SDS011;4480;52.370;9.748;2022-12-18T06:38:10;17.00;;;9.82;;
8887;SDS011;4480;52.370;9.748;2022-12-18T06:40:37;16.98;;;10.27;;
8887;SDS011;4480;52.370;9.748;2022-12-18T06:43:04;13.00;;;9.00;;
8887;SDS011;4480;52.370;9.748;2022-12-18T06:45:32;14.90;;;9.90;;
8887;SDS011;4480;52.370;9.748;2022-12-18T06:47:59;13.95;;;9.88;;
8887;SDS011;4480;52.370;9.748;2022-12-18T06:50:26;13.67;;;9.77;;
8887;SDS011;4480;52.370;9.748;2022-12-18T06:52:53;13.50;;;9.50;;
8887;SDS011;4480;52.370;9.748;2022-12-18T06:55:19;11.55;;;9.00;;
8887;SDS011;4480;52.370;9.748;2022-12-18T06:57:46;12.60;;;9.80;;
8887;SDS011;4480;52.370;9.748;2022-12-18T07:00:13;13.30;;;9.48;;
8887;SDS011;4480;52.370;9.748;2022-12-18T07:02:41;15.98;;;9.32;;
8887;SDS011;4480;52.370;9.748;2022-12-18T07:05:08;14.00;;;9.80;;
8887;SDS011;4480;52.370;9.748;2022-12-18T07:07:35;11.67;;;9.40;;
8887;SDS011;4480;52.370;9.748;2022-12-18T07:10:02;12.90;;;9.80;;
8887;SDS011;4480;52.370;9.748;2022-12-18T07:12:29;14.57;;;10.60;;
8887;SDS011;4480;52.370;9.748;2022-12-18T07:14:56;15.30;;;10.20;;
8887;SDS011;4480;52.370;9.748;2022-12-18T07:17:22;14.20;;;10.40;;
8887;SDS011;4480;52.370;9.748;2022-12-18T07:19:50;16.23;;;11.05;;
8887;SDS011;4480;52.370;9.748;2022-12-18T07:22:17;14.30;;;10.10;;
8887;SDS011;4480;52.370;9.748;2022-12-18T07:24:44;13.45;;;10.10;;
8887;SDS011;4480;52.370;9.748;2022-12-18T07:27:11;17.95;;;10.98;;
8887;SDS011;4480;52.370;9.748;2022-12-18T07:29:38;15.07;;;10.40;;
8887;SDS011;4480;52.370;9.748;2022-12-18T07:32:05;13.73;;;9.93;;
8887;SDS011;4480;52.370;9.748;2022-12-18T07:34:32;14.82;;;9.82;;
8887;SDS011;4480;52.370;9.748;2022-12-18T07:37:00;17.63;;;10.45;;
8887;SDS011;4480;52.370;9.748;2022-12-18T07:39:26;13.30;;;9.90;;
8887;SDS011;4480;52.370;9.748;2022-12-18T07:41:53;13.02;;;9.10;;
8887;SDS011;4480;52.370;9.748;2022-12-18T07:44:34;14.88;;;10.20;;
8887;SDS011;4480;52.370;9.748;2022-12-18T07:47:01;14.30;;;9.55;;
8887;SDS011;4480;52.370;9.748;2022-12-18T07:49:28;14.90;;;9.13;;
8887;SDS011;4480;52.370;9.748;2022-12-18T07:51:54;15.52;;;9.95;;
8887;SDS011;4480;52.370;9.748;2022-12-18T07:54:23;15.20;;;9.77;;
8887;SDS011;4480;52.370;9.748;2022-12-18T07:56:51;15.30;;;9.60;;
8887;SDS011;4480;52.370;9.748;2022-12-18T07:59:18;14.43;;;10.20;;
8887;SDS011;4480;52.370;9.748;2022-12-18T08:01:44;13.57;;;9.23;;
8887;SDS011;4480;52.370;9.748;2022-12-18T08:04:11;12.23;;;9.00;;
8887;SDS011;4480;52.370;9.748;2022-12-18T08:06:38;14.73;;;10.10;;
8887;SDS011;4480;52.370;9.748;2022-12-18T08:09:04;13.43;;;9.77;;
8887;SDS011;4480;52.370;9.748;2022-12-18T08:11:34;14.88;;;10.20;;
8887;SDS011;4480;52.370;9.748;2022-12-18T08:14:01;13.85;;;9.75;;
8887;SDS011;4480;52.370;9.748;2022-12-18T08:16:27;13.55;;;9.60;;
8887;SDS011;4480;52.370;9.748;2022-12-18T08:18:55;15.25;;;10.02;;
8887;SDS011;4480;52.370;9.748;2022-12-18T08:21:23;15.00;;;9.60;;
8887;SDS011;4480;52.370;9.748;2022-12-18T08:23:52;13.85;;;9.70;;
8887;SDS011;4480;52.370;9.748;2022-12-18T08:26:20;13.70;;;9.75;;
8887;SDS011;4480;52.370;9.748;2022-12-18T08:28:49;13.77;;;10.00;;
8887;SDS011;4480;52.370;9.748;2022-12-18T08:31:16;15.00;;;9.80;;
8887;SDS011;4480;52.370;9.748;2022-12-18T08:33:43;12.48;;;9.18;;
8887;SDS011;4480;52.370;9.748;2022-12-18T08:36:10;14.13;;;10.50;;
8887;SDS011;4480;52.370;9.748;2022-12-18T08:38:37;14.17;;;10.13;;
8887;SDS011;4480;52.370;9.748;2022-12-18T08:41:04;13.82;;;9.93;;
8887;SDS011;4480;52.370;9.748;2022-12-18T08:43:32;12.20;;;9.35;;
8887;SDS011;4480;52.370;9.748;2022-12-18T08:46:18;15.30;;;10.27;;
8887;SDS011;4480;52.370;9.748;2022-12-18T08:48:45;12.85;;;9.35;;
8887;SDS011;4480;52.370;9.748;2022-12-18T08:51:12;12.20;;;9.50;;
8887;SDS011;4480;52.370;9.748;2022-12-18T08:53:41;12.85;;;9.73;;
8887;SDS011;4480;52.370;9.748;2022-12-18T08:56:09;13.80;;;10.27;;
8887;SDS011;4480;52.370;9.748;2022-12-18T08:58:36;13.73;;;10.02;;
8887;SDS011;4480;52.370;9.748;2022-12-18T09:01:03;13.50;;;9.40;;
8887;SDS011;4480;52.370;9.748;2022-12-18T09:03:33;13.65;;;9.50;;
8887;SDS011;4480;52.370;9.748;2022-12-18T09:06:00;14.20;;;9.83;;
8887;SDS011;4480;52.370;9.748;2022-12-18T09:08:27;10.93;;;8.60;;
8887;SDS011;4480;52.370;9.748;2022-12-18T09:10:54;14.60;;;9.68;;
8887;SDS011;4480;52.370;9.748;2022-12-18T09:13:21;14.40;;;10.70;;
8887;SDS011;4480;52.370;9.748;2022-12-18T09:15:49;14.88;;;10.73;;
8887;SDS011;4480;52.370;9.748;2022-12-18T09:18:17;12.40;;;9.45;;
8887;SDS011;4480;52.370;9.748;2022-12-18T09:20:46;13.77;;;9.70;;
8887;SDS011;4480;52.370;9.748;2022-12-18T09:23:13;14.85;;;9.80;;
8887;SDS011;4480;52.370;9.748;2022-12-18T09:25:40;11.75;;;8.80;;
8887;SDS011;4480;52.370;9.748;2022-12-18T09:28:11;13.00;;;9.38;;
8887;SDS011;4480;52.370;9.748;2022-12-18T09:30:43;12.32;;;8.70;;
8887;SDS011;4480;52.370;9.748;2022-12-18T09:33:11;11.68;;;9.25;;
8887;SDS011;4480;52.370;9.748;2022-12-18T09:35:38;12.10;;;9.10;;
8887;SDS011;4480;52.370;9.748;2022-12-18T09:38:07;12.38;;;8.25;;
8887;SDS011;4480;52.370;9.748;2022-12-18T09:40:39;12.52;;;8.95;;
8887;SDS011;4480;52.370;9.748;2022-12-18T09:43:09;11.15;;;8.73;;
8887;SDS011;4480;52.370;9.748;2022-12-18T09:45:43;15.13;;;8.40;;
8887;SDS011;4480;52.370;9.748;2022-12-18T09:48:14;13.18;;;8.60;;
8887;SDS011;4480;52.370;9.748;2022-12-18T09:50:45;11.48;;;7.95;;
8887;SDS011;4480;52.370;9.748;2022-12-18T09:53:15;12.20;;;8.80;;
8887;SDS011;4480;52.370;9.748;2022-12-18T09:55:46;10.80;;;8.02;;
8887;SDS011;4480;52.370;9.748;2022-12-18T09:58:16;10.38;;;8.10;;
8887;SDS011;4480;52.370;9.748;2022-12-18T10:00:46;11.83;;;8.70;;
8887;SDS011;4480;52.370;9.748;2022-12-18T10:03:14;10.85;;;7.72;;
8887;SDS011;4480;52.370;9.748;2022-12-18T10:05:43;10.10;;;7.70;;
8887;SDS011;4480;52.370;9.748;2022-12-18T10:08:22;9.03;;;6.93;;
8887;SDS011;4480;52.370;9.748;2022-12-18T10:10:57;8.75;;;7.28;;
8887;SDS011;4480;52.370;9.748;2022-12-18T10:13:28;12.88;;;7.65;;
8887;SDS011;4480;52.370;9.748;2022-12-18T10:16:04;9.63;;;7.18;;
8887;SDS011;4480;52.370;9.748;2022-12-18T10:18:46;10.60;;;7.60;;
8887;SDS011;4480;52.370;9.748;2022-12-18T10:21:24;13.25;;;8.70;;
8887;SDS011;4480;52.370;9.748;2022-12-18T10:23:58;10.30;;;7.60;;
8887;SDS011;4480;52.370;9.748;2022-12-18T10:26:36;9.93;;;7.10;;
8887;SDS011;4480;52.370;9.748;2022-12-18T10:29:04;9.27;;;7.40;;
8887;SDS011;4480;52.370;9.748;2022-12-18T10:31:36;10.63;;;7.40;;
8887;SDS011;4480;52.370;9.748;2022-12-18T10:34:03;10.43;;;7.70;;
8887;SDS011;4480;52.370;9.748;2022-12-18T10:36:30;10.07;;;7.80;;
8887;SDS011;4480;52.370;9.748;2022-12-18T10:39:01;10.90;;;7.47;;
8887;SDS011;4480;52.370;9.748;2022-12-18T10:41:41;9.88;;;6.97;;
8887;SDS011;4480;52.370;9.748;2022-12-18T10:44:12;9.20;;;7.28;;
8887;SDS011;4480;52.370;9.748;2022-12-18T10:46:43;10.00;;;7.68;;
8887;SDS011;4480;52.370;9.748;2022-12-18T10:49:18;10.90;;;8.07;;
8887;SDS011;4480;52.370;9.748;2022-12-18T10:51:47;10.88;;;7.85;;
8887;SDS011;4480;52.370;9.748;2022-12-18T10:54:16;9.77;;;7.70;;
8887;SDS011;4480;52.370;9.748;2022-12-18T10:56:45;10.32;;;7.50;;
8887;SDS011;4480;52.370;9.748;2022-12-18T10:59:12;10.63;;;7.60;;
8887;SDS011;4480;52.370;9.748;2022-12-18T11:01:47;11.23;;;7.63;;
8887;SDS011;4480;52.370;9.748;2022-12-18T11:04:17;9.88;;;7.72;;
8887;SDS011;4480;52.370;9.748;2022-12-18T11:06:52;12.35;;;8.45;;
8887;SDS011;4480;52.370;9.748;2022-12-18T11:09:23;9.90;;;7.45;;
8887;SDS011;4480;52.370;9.748;2022-12-18T11:11:52;9.30;;;7.20;;
8887;SDS011;4480;52.370;9.748;2022-12-18T11:14:21;9.95;;;6.80;;
8887;SDS011;4480;52.370;9.748;2022-12-18T11:16:50;7.75;;;6.70;;
8887;SDS011;4480;52.370;9.748;2022-12-18T11:19:20;9.48;;;6.68;;
8887;SDS011;4480;52.370;9.748;2022-12-18T11:21:56;8.70;;;6.60;;
8887;SDS011;4480;52.370;9.748;2022-12-18T11:24:26;9.13;;;6.97;;
8887;SDS011;4480;52.370;9.748;2022-12-18T11:26:55;9.02;;;6.40;;
8887;SDS011;4480;52.370;9.748;2022-12-18T11:29:24;8.23;;;6.35;;
8887;SDS011;4480;52.370;9.748;2022-12-18T11:34:48;8.93;;;6.18;;
8887;SDS011;4480;52.370;9.748;2022-12-18T11:37:17;8.95;;;6.70;;
8887;SDS011;4480;52.370;9.748;2022-12-18T11:39:48;9.00;;;6.85;;
8887;SDS011;4480;52.370;9.748;2022-12-18T11:42:20;7.83;;;6.77;;
8887;SDS011;4480;52.370;9.748;2022-12-18T11:44:51;9.77;;;6.60;;
8887;SDS011;4480;52.370;9.748;2022-12-18T11:47:23;8.48;;;6.97;;
8887;SDS011;4480;52.370;9.748;2022-12-18T11:49:55;8.38;;;5.85;;
8887;SDS011;4480;52.370;9.748;2022-12-18T11:52:26;7.90;;;6.40;;
8887;SDS011;4480;52.370;9.748;2022-12-18T11:54:59;8.23;;;6.10;;
8887;SDS011;4480;52.370;9.748;2022-12-18T11:57:32;8.70;;;6.10;;
8887;SDS011;4480;52.370;9.748;2022-12-18T12:00:10;6.68;;;5.53;;
8887;SDS011;4480;52.370;9.748;2022-12-18T12:02:47;7.75;;;5.78;;
8887;SDS011;4480;52.370;9.748;2022-12-18T12:05:36;7.45;;;5.28;;
8887;SDS011;4480;52.370;9.748;2022-12-18T12:08:13;6.63;;;5.22;;
8887;SDS011;4480;52.370;9.748;2022-12-18T12:10:49;7.68;;;5.13;;
8887;SDS011;4480;52.370;9.748;2022-12-18T12:13:28;6.07;;;5.40;;
8887;SDS011;4480;52.370;9.748;2022-12-18T12:16:10;7.43;;;5.50;;
8887;SDS011;4480;52.370;9.748;2022-12-18T12:18:49;6.97;;;5.50;;
8887;SDS011;4480;52.370;9.748;2022-12-18T12:21:34;9.13;;;6.05;;
8887;SDS011;4480;52.370;9.748;2022-12-18T12:24:08;7.63;;;5.90;;
8887;SDS011;4480;52.370;9.748;2022-12-18T12:26:55;7.90;;;5.47;;
8887;SDS011;4480;52.370;9.748;2022-12-18T12:29:35;7.13;;;5.32;;
8887;SDS011;4480;52.370;9.748;2022-12-18T12:32:17;6.35;;;4.82;;
8887;SDS011;4480;52.370;9.748;2022-12-18T12:34:55;8.73;;;5.30;;
8887;SDS011;4480;52.370;9.748;2022-12-18T12:37:33;9.43;;;5.40;;
8887;SDS011;4480;52.370;9.748;2022-12-18T12:40:11;7.43;;;4.82;;
8887;SDS011;4480;52.370;9.748;2022-12-18T12:42:44;4.97;;;4.43;;
8887;SDS011;4480;52.370;9.748;2022-12-18T12:45:33;5.57;;;4.93;;
8887;SDS011;4480;52.370;9.748;2022-12-18T12:48:03;9.05;;;5.97;;
8887;SDS011;4480;52.370;9.748;2022-12-18T12:50:37;7.32;;;5.10;;
8887;SDS011;4480;52.370;9.748;2022-12-18T12:53:05;9.63;;;5.93;;
8887;SDS011;4480;52.370;9.748;2022-12-18T12:55:36;8.50;;;5.93;;
8887;SDS011;4480;52.370;9.748;2022-12-18T12:58:07;10.90;;;6.32;;
8887;SDS011;4480;52.370;9.748;2022-12-18T13:00:43;11.45;;;6.97;;
8887;SDS011;4480;52.370;9.748;2022-12-18T13:03:18;8.40;;;6.97;;
8887;SDS011;4480;52.370;9.748;2022-12-18T13:06:00;11.40;;;6.10;;
8887;SDS011;4480;52.370;9.748;2022-12-18T13:11:28;9.25;;;6.22;;
8887;SDS011;4480;52.370;9.748;2022-12-18T13:14:21;9.43;;;6.88;;
8887;SDS011;4480;52.370;9.748;2022-12-18T13:16:50;10.00;;;8.10;;
8887;SDS011;4480;52.370;9.748;2022-12-18T13:19:21;10.57;;;8.20;;
8887;SDS011;4480;52.370;9.748;2022-12-18T13:21:52;13.27;;;9.25;;
8887;SDS011;4480;52.370;9.748;2022-12-18T13:24:23;12.03;;;9.13;;
8887;SDS011;4480;52.370;9.748;2022-12-18T13:26:52;15.48;;;9.77;;
8887;SDS011;4480;52.370;9.748;2022-12-18T13:32:19;14.70;;;11.02;;
8887;SDS011;4480;52.370;9.748;2022-12-18T13:34:47;16.00;;;10.27;;
8887;SDS011;4480;52.370;9.748;2022-12-18T13:43:15;16.70;;;11.80;;
8887;SDS011;4480;52.370;9.748;2022-12-18T13:45:59;17.25;;;11.57;;
8887;SDS011;4480;52.370;9.748;2022-12-18T13:48:28;16.33;;;11.73;;
8887;SDS011;4480;52.370;9.748;2022-12-18T13:50:59;17.38;;;12.13;;
8887;SDS011;4480;52.370;9.748;2022-12-18T13:53:29;16.90;;;11.80;;
8887;SDS011;4480;52.370;9.748;2022-12-18T13:55:59;17.08;;;12.02;;
8887;SDS011;4480;52.370;9.748;2022-12-18T13:58:27;18.48;;;12.30;;
8887;SDS011;4480;52.370;9.748;2022-12-18T14:00:56;18.83;;;12.70;;
8887;SDS011;4480;52.370;9.748;2022-12-18T14:03:24;18.88;;;13.18;;
8887;SDS011;4480;52.370;9.748;2022-12-18T14:05:54;18.23;;;12.73;;
8887;SDS011;4480;52.370;9.748;2022-12-18T14:08:24;19.08;;;12.90;;
8887;SDS011;4480;52.370;9.748;2022-12-18T14:10:56;19.90;;;13.40;;
8887;SDS011;4480;52.370;9.748;2022-12-18T14:13:24;19.30;;;13.50;;
8887;SDS011;4480;52.370;9.748;2022-12-18T14:15:56;21.42;;;13.82;;
8887;SDS011;4480;52.370;9.748;2022-12-18T14:18:25;18.50;;;13.70;;
8887;SDS011;4480;52.370;9.748;2022-12-18T14:20:58;21.00;;;15.30;;
8887;SDS011;4480;52.370;9.748;2022-12-18T14:23:27;22.23;;;14.80;;
8887;SDS011;4480;52.370;9.748;2022-12-18T14:25:56;21.38;;;14.90;;
8887;SDS011;4480;52.370;9.748;2022-12-18T14:28:23;20.40;;;14.38;;
8887;SDS011;4480;52.370;9.748;2022-12-18T14:30:51;21.97;;;14.73;;
8887;SDS011;4480;52.370;9.748;2022-12-18T14:33:21;18.40;;;13.80;;
8887;SDS011;4480;52.370;9.748;2022-12-18T14:35:54;23.53;;;15.10;;
8887;SDS011;4480;52.370;9.748;2022-12-18T14:38:23;24.05;;;15.50;;
8887;SDS011;4480;52.370;9.748;2022-12-18T14:40:53;21.98;;;14.55;;
8887;SDS011;4480;52.370;9.748;2022-12-18T14:43:22;20.30;;;15.50;;
8887;SDS011;4480;52.370;9.748;2022-12-18T14:45:49;24.10;;;16.05;;
8887;SDS011;4480;52.370;9.748;2022-12-18T14:48:17;24.17;;;15.30;;
8887;SDS011;4480;52.370;9.748;2022-12-18T14:50:55;22.85;;;14.82;;
8887;SDS011;4480;52.370;9.748;2022-12-18T14:53:26;23.58;;;15.80;;
8887;SDS011;4480;52.370;9.748;2022-12-18T14:56:04;24.90;;;16.00;;
8887;SDS011;4480;52.370;9.748;2022-12-18T14:58:43;21.33;;;14.40;;
8887;SDS011;4480;52.370;9.748;2022-12-18T15:01:17;22.52;;;14.88;;
8887;SDS011;4480;52.370;9.748;2022-12-18T15:03:45;24.67;;;15.18;;
8887;SDS011;4480;52.370;9.748;2022-12-18T15:06:17;23.23;;;15.85;;
8887;SDS011;4480;52.370;9.748;2022-12-18T15:08:51;25.48;;;16.27;;
8887;SDS011;4480;52.370;9.748;2022-12-18T15:14:21;23.27;;;15.63;;
8887;SDS011;4480;52.370;9.748;2022-12-18T15:16:50;21.20;;;15.88;;
8887;SDS011;4480;52.370;9.748;2022-12-18T15:19:19;22.05;;;15.98;;
8887;SDS011;4480;52.370;9.748;2022-12-18T15:21:49;23.50;;;16.88;;
8887;SDS011;4480;52.370;9.748;2022-12-18T15:24:16;22.45;;;15.95;;
8887;SDS011;4480;52.370;9.748;2022-12-18T15:26:46;22.73;;;16.33;;
8887;SDS011;4480;52.370;9.748;2022-12-18T15:29:18;22.55;;;15.98;;
8887;SDS011;4480;52.370;9.748;2022-12-18T15:32:00;27.33;;;17.08;;
8887;SDS011;4480;52.370;9.748;2022-12-18T15:34:29;26.27;;;17.05;;